Aérodrome :
LOGIN :

S'inscrire | Disclaimer

   EN    FR    IT 

 










Légende :    VFR   VFR Marginal   IFR   IFR Intensif   IFR Très Intensif
Visi : 
Plafond : 
>= 8 km
>= 3000ft
5 à 8 km
1000 à 3000 ft
1500m à 5 km
500 à 1000 ft
800 à 1500m
200 à 500 ft
< 800m
< 200 ft
Symboles :   Orages  Brouillard  Fortes neiges  Fortes précipitations  Vent > 20 kt
SIGMETs :   Divers  Orages  Givrage  Turbulence  Onde Orograph.  Cendres Volcan.






- Altitude de l'aérodrome : 995 ft
- Code IATA : KTW


EPKT - Katowice

DERNIER METAR :
  • 041800Z 05004KT CAVOK 06/M04 Q1027

METARs EXPIRÉS :
  • 041730Z 02005KT CAVOK 08/M05 Q1026
  • 041700Z 01005KT CAVOK 09/M05 Q1026
  • 041630Z 01008KT CAVOK 10/M05 Q1026
  • 041600Z 33007KT CAVOK 10/M05 Q1026
  • 041530Z 34007KT CAVOK 10/M05 Q1025

TAF TAF EPKT
Valide du 04 à 18h jusqu'au 05 à 18h UTC


041730Z 0418/0518 03005KT CAVOK
PROB30
TEMPO 0509/0518 09015KT



MET'MAP, la Météo Aéronautique d'un coup d'oeil ! - Copyright ORBIFLY Décembre 2007 - Disclaimer

ORBIFLY MET'MAP TEAM :

Programmation & Développement : Alexandra Zaïnal
Sur une idée originale de : Baudouin d'Aumeries
Assistance à la programmation : Marc-Olivier Méhu
Soutien technique & logistique : Manuel Goepfert

Contact : metmap@orbifly.com




SOURCES & CREDITS :

   NOAA